createdAt,value
2022-12-04T00:03:57.143Z,97855.00
2022-12-04T00:08:59.031Z,97860.00
2022-12-04T00:14:06.482Z,97864.78
2022-12-04T00:19:09.181Z,97853.03
2022-12-04T00:24:11.036Z,97853.13
2022-12-04T00:29:13.601Z,97855.59
2022-12-04T00:34:15.456Z,97855.09
2022-12-04T00:39:17.313Z,97854.16
2022-12-04T00:44:19.134Z,97845.44
2022-12-04T00:49:20.893Z,97825.50
2022-12-04T00:54:22.643Z,97821.31
2022-12-04T00:59:24.604Z,97823.16
2022-12-04T01:04:26.356Z,97820.81
2022-12-04T01:09:28.386Z,97820.72
2022-12-04T01:14:30.259Z,97820.59
2022-12-04T01:19:32.045Z,97818.63
2022-12-04T01:24:33.821Z,97814.63
2022-12-04T01:29:35.607Z,97814.84
2022-12-04T01:34:37.418Z,97808.69
2022-12-04T01:39:39.182Z,97797.00
2022-12-04T01:45:04.707Z,97794.91
2022-12-04T01:50:07.062Z,97786.72
2022-12-04T01:55:09.498Z,97783.94
2022-12-04T02:00:14.968Z,97785.81
2022-12-04T02:05:19.271Z,97793.59
2022-12-04T02:10:24.724Z,97786.41
2022-12-04T02:15:53.985Z,97770.34
2022-12-04T02:21:01.659Z,97765.94
2022-12-04T02:26:26.878Z,97764.41
2022-12-04T02:31:35.382Z,97769.81
2022-12-04T02:36:49.171Z,97780.59
2022-12-04T02:42:05.000Z,97781.91
2022-12-04T02:47:12.370Z,97775.97
2022-12-04T02:52:21.171Z,97773.09
2022-12-04T02:57:29.412Z,97770.53
2022-12-04T03:02:41.098Z,97760.63
2022-12-04T03:07:52.715Z,97758.69
2022-12-04T03:13:05.382Z,97762.34
2022-12-04T03:18:27.202Z,97761.44
2022-12-04T03:23:35.349Z,97770.06
2022-12-04T03:28:52.806Z,97773.91
2022-12-04T03:33:58.337Z,97772.53
2022-12-04T03:39:26.703Z,97771.50
2022-12-04T03:44:38.952Z,97783.94
2022-12-04T03:49:56.018Z,97774.50
2022-12-04T03:55:04.663Z,97774.63
2022-12-04T04:00:18.515Z,97770.41
2022-12-04T04:05:22.449Z,97779.16
2022-12-04T04:10:26.909Z,97777.88
2022-12-04T04:15:47.377Z,97772.63
2022-12-04T04:21:13.266Z,97761.81
2022-12-04T04:26:16.528Z,97770.31
2022-12-04T04:31:42.171Z,97780.22
2022-12-04T04:36:56.048Z,97783.03
2022-12-04T04:42:12.786Z,97787.44
2022-12-04T04:47:28.003Z,97777.66
2022-12-04T04:52:31.367Z,97770.56
2022-12-04T04:57:35.928Z,97770.78
2022-12-04T05:02:38.348Z,97752.28
2022-12-04T05:07:40.261Z,97754.94
2022-12-04T05:12:42.257Z,97756.34
2022-12-04T05:17:44.002Z,97755.66
2022-12-04T05:22:45.844Z,97751.22
2022-12-04T05:27:47.636Z,97754.22
2022-12-04T05:32:49.406Z,97744.59
2022-12-04T05:37:51.218Z,97739.34
2022-12-04T05:42:52.982Z,97728.63
2022-12-04T05:47:54.853Z,97735.25
2022-12-04T05:52:56.611Z,97737.72
2022-12-04T05:57:58.444Z,97740.88
2022-12-04T06:03:00.295Z,97740.19
2022-12-04T06:08:02.235Z,97739.47
2022-12-04T06:13:06.574Z,97736.22
2022-12-04T06:18:08.449Z,97741.47
2022-12-04T06:23:10.264Z,97755.09
2022-12-04T06:28:12.023Z,97746.69
2022-12-04T06:33:13.801Z,97753.91
2022-12-04T06:38:15.559Z,97750.78
2022-12-04T06:43:17.320Z,97757.88
2022-12-04T06:48:19.095Z,97754.84
2022-12-04T06:53:20.884Z,97758.09
2022-12-04T06:58:22.654Z,97760.66
2022-12-04T07:03:25.862Z,97757.41
2022-12-04T07:08:27.630Z,97747.63
2022-12-04T07:13:29.398Z,97749.03
2022-12-04T07:18:32.468Z,97749.00
2022-12-04T07:23:34.853Z,97753.44
2022-12-04T07:28:37.196Z,97749.59
2022-12-04T07:33:39.750Z,97754.50
2022-12-04T07:38:42.561Z,97766.06
2022-12-04T07:43:44.692Z,97773.53
2022-12-04T07:48:46.541Z,97774.22
2022-12-04T07:53:50.396Z,97784.56
2022-12-04T07:58:52.197Z,97781.84
2022-12-04T08:03:57.200Z,97785.09
2022-12-04T08:08:59.517Z,97789.50
2022-12-04T08:14:08.784Z,97787.03
2022-12-04T08:19:10.582Z,97781.28
2022-12-04T08:24:12.391Z,97784.00
2022-12-04T08:29:14.183Z,97776.00
2022-12-04T08:34:16.571Z,97765.84
2022-12-04T08:39:18.377Z,97771.56
2022-12-04T08:44:20.194Z,97770.69
2022-12-04T08:49:21.951Z,97771.97
2022-12-04T08:54:23.790Z,97770.84
2022-12-04T08:59:25.595Z,97776.53
2022-12-04T09:04:27.412Z,97784.88
2022-12-04T09:09:29.335Z,97787.38
2022-12-04T09:14:31.087Z,97792.25
2022-12-04T09:19:33.327Z,97776.22
2022-12-04T09:24:35.092Z,97775.09
2022-12-04T09:29:36.881Z,97779.72
2022-12-04T09:34:38.740Z,97768.47
2022-12-04T09:39:40.764Z,97766.13
2022-12-04T09:45:07.742Z,97771.97
2022-12-04T09:50:20.758Z,97760.75
2022-12-04T09:55:39.985Z,97766.50
2022-12-04T10:00:46.053Z,97760.97
2022-12-04T10:06:21.800Z,97750.84
2022-12-04T10:11:47.339Z,97753.84
2022-12-04T10:17:19.365Z,97757.56
2022-12-04T10:22:28.712Z,97757.09
2022-12-04T10:27:44.817Z,97747.75
2022-12-04T10:32:48.368Z,97744.47
2022-12-04T10:37:58.471Z,97727.63
2022-12-04T10:43:14.957Z,97761.03
2022-12-04T10:48:32.962Z,97766.31
2022-12-04T10:53:37.105Z,97754.69
2022-12-04T10:58:38.950Z,97762.06
2022-12-04T11:03:43.529Z,97757.22
2022-12-04T11:08:50.445Z,97757.66
2022-12-04T11:14:15.669Z,97758.78
2022-12-04T11:19:22.261Z,97750.06
2022-12-04T11:24:30.446Z,97747.41
2022-12-04T11:29:45.812Z,97739.97
2022-12-04T11:34:48.928Z,97721.88
2022-12-04T11:39:52.017Z,97719.31
2022-12-04T11:44:56.679Z,97710.44
2022-12-04T11:50:13.209Z,97713.03
2022-12-04T11:55:28.477Z,97721.03
2022-12-04T12:00:39.058Z,97713.88
2022-12-04T12:06:18.649Z,97707.63
2022-12-04T12:11:34.581Z,97705.09
2022-12-04T12:17:00.702Z,97702.63
2022-12-04T12:22:26.156Z,97693.09
2022-12-04T12:27:34.018Z,97684.16
2022-12-04T12:32:59.984Z,97676.47
2022-12-04T12:38:07.300Z,97672.34
2022-12-04T12:43:30.258Z,97673.88
2022-12-04T12:48:44.249Z,97669.81
2022-12-04T12:53:51.242Z,97669.97
2022-12-04T12:59:00.696Z,97672.41
2022-12-04T13:04:25.312Z,97660.59
2022-12-04T13:09:35.218Z,97645.72
2022-12-04T13:14:37.331Z,97650.44
2022-12-04T13:19:46.297Z,97624.47
2022-12-04T13:24:59.504Z,97620.41
2022-12-04T13:30:10.338Z,97617.72
2022-12-04T13:35:27.359Z,97620.53
2022-12-04T13:40:34.335Z,97625.84
2022-12-04T13:45:36.366Z,97617.16
2022-12-04T13:50:40.650Z,97633.94
2022-12-04T13:55:42.709Z,97626.50
2022-12-04T14:00:44.779Z,97627.72
2022-12-04T14:05:48.608Z,97630.19
2022-12-04T14:11:03.863Z,97629.34
2022-12-04T14:16:26.976Z,97621.78
2022-12-04T14:21:45.698Z,97629.50
2022-12-04T14:27:10.802Z,97638.44
2022-12-04T14:32:18.856Z,97632.06
2022-12-04T14:37:27.904Z,97627.06
2022-12-04T14:42:38.136Z,97618.41
2022-12-04T14:47:57.749Z,97623.28
2022-12-04T14:53:02.580Z,97624.75
2022-12-04T14:58:31.580Z,97616.66
2022-12-04T15:03:43.410Z,97616.56
2022-12-04T15:08:51.169Z,97603.00
2022-12-04T15:13:53.157Z,97601.25
2022-12-04T15:18:57.349Z,97606.53
2022-12-04T15:23:59.200Z,97597.75
2022-12-04T15:29:05.058Z,97587.06
2022-12-04T15:34:16.562Z,97587.97
2022-12-04T15:39:28.007Z,97587.88
2022-12-04T15:44:31.922Z,97586.91
2022-12-04T15:49:33.932Z,97575.81
2022-12-04T15:54:36.749Z,97574.88
2022-12-04T15:59:38.543Z,97579.75
2022-12-04T16:04:45.567Z,97586.22
2022-12-04T16:10:01.303Z,97584.91
2022-12-04T16:15:07.695Z,97581.22
2022-12-04T16:20:11.013Z,97593.28
2022-12-04T16:25:13.636Z,97590.84
2022-12-04T16:30:15.625Z,97593.66
2022-12-04T16:35:17.757Z,97586.50
2022-12-04T16:40:19.668Z,97591.22
2022-12-04T16:45:23.461Z,97593.50
2022-12-04T16:50:26.412Z,97600.97
2022-12-04T16:55:36.979Z,97594.84
2022-12-04T17:00:39.290Z,97589.44
2022-12-04T17:05:41.047Z,97583.91
2022-12-04T17:10:42.900Z,97584.97
2022-12-04T17:15:44.839Z,97584.84
2022-12-04T17:20:46.642Z,97584.97
2022-12-04T17:25:48.551Z,97573.72
2022-12-04T17:30:50.323Z,97573.59
2022-12-04T17:35:54.109Z,97572.50
2022-12-04T17:41:01.238Z,97574.53
2022-12-04T17:46:09.328Z,97579.38
2022-12-04T17:51:18.156Z,97568.09
2022-12-04T17:56:22.872Z,97576.09
2022-12-04T18:01:27.680Z,97577.69
2022-12-04T18:06:32.266Z,97580.59
2022-12-04T18:11:36.726Z,97582.13
2022-12-04T18:16:42.332Z,97576.00
2022-12-04T18:21:44.199Z,97572.31
2022-12-04T18:26:48.244Z,97571.34
2022-12-04T18:31:51.244Z,97575.53
2022-12-04T18:36:53.123Z,97571.72
2022-12-04T18:41:57.015Z,97560.16
2022-12-04T18:46:58.957Z,97564.47
2022-12-04T18:52:00.772Z,97568.38
2022-12-04T18:57:03.066Z,97570.50
2022-12-04T19:02:05.068Z,97570.78
2022-12-04T19:07:06.904Z,97572.84
2022-12-04T19:12:08.736Z,97580.28
2022-12-04T19:17:11.430Z,97580.00
2022-12-04T19:22:13.450Z,97582.72
2022-12-04T19:27:15.355Z,97580.88
2022-12-04T19:32:17.170Z,97583.84
2022-12-04T19:37:18.985Z,97582.78
2022-12-04T19:42:20.739Z,97593.78
2022-12-04T19:47:22.856Z,97585.03
2022-12-04T19:52:24.706Z,97578.41
2022-12-04T19:57:26.553Z,97576.91
2022-12-04T20:02:28.376Z,97566.81
2022-12-04T20:07:30.246Z,97562.63
2022-12-04T20:12:32.175Z,97564.41
2022-12-04T20:17:34.073Z,97566.53
2022-12-04T20:22:36.902Z,97572.50
2022-12-04T20:27:38.689Z,97582.44
2022-12-04T20:32:40.465Z,97569.09
2022-12-04T20:37:43.269Z,97571.09
2022-12-04T20:42:45.423Z,97568.84
2022-12-04T20:47:47.244Z,97553.78
2022-12-04T20:52:49.027Z,97557.63
2022-12-04T20:57:50.814Z,97558.06
2022-12-04T21:02:52.704Z,97557.09
2022-12-04T21:07:54.665Z,97561.44
2022-12-04T21:13:14.837Z,97570.41
2022-12-04T21:18:16.598Z,97566.50
2022-12-04T21:23:18.436Z,97561.34
2022-12-04T21:28:20.219Z,97553.50
2022-12-04T21:33:21.984Z,97562.47
2022-12-04T21:38:23.716Z,97562.59
2022-12-04T21:43:26.923Z,97558.56
2022-12-04T21:48:30.717Z,97557.59
2022-12-04T21:53:32.543Z,97557.91
2022-12-04T21:58:34.838Z,97556.25
2022-12-04T22:03:36.723Z,97555.75
2022-12-04T22:08:40.832Z,97560.75
2022-12-04T22:13:42.930Z,97557.06
2022-12-04T22:18:45.631Z,97568.38
2022-12-04T22:23:47.439Z,97570.94
2022-12-04T22:28:50.789Z,97575.94
2022-12-04T22:33:54.963Z,97580.66
2022-12-04T22:39:12.402Z,97579.44
2022-12-04T22:44:14.369Z,97587.97
2022-12-04T22:49:16.350Z,97579.59
2022-12-04T22:54:18.288Z,97586.25
2022-12-04T22:59:20.069Z,97570.41
2022-12-04T23:04:21.815Z,97564.03
2022-12-04T23:09:23.749Z,97560.59
2022-12-04T23:14:27.094Z,97557.06
2022-12-04T23:19:31.296Z,97558.56
2022-12-04T23:24:33.433Z,97551.53
2022-12-04T23:34:57.245Z,97552.06
2022-12-04T23:39:59.260Z,97542.16
2022-12-04T23:45:01.158Z,97551.38
2022-12-04T23:50:03.991Z,97549.59
2022-12-04T23:55:06.353Z,97548.38
